Aérodrome :
LOGIN :

S'inscrire | Disclaimer

   EN    FR    IT 

 










Légende :    VFR   VFR Marginal   IFR   IFR Intensif   IFR Très Intensif
Visi : 
Plafond : 
>= 8 km
>= 3000ft
5 à 8 km
1000 à 3000 ft
1500m à 5 km
500 à 1000 ft
800 à 1500m
200 à 500 ft
< 800m
< 200 ft
Symboles :   Orages  Brouillard  Fortes neiges  Fortes précipitations  Vent > 20 kt
SIGMETs :   Divers  Orages  Givrage  Turbulence  Onde Orograph.  Cendres Volcan.






- Altitude de l'aérodrome : 425 ft
- Code IATA : DTM


EDLW - Dortmund

DERNIER METAR :
  • 300320Z AUTO 23013KT 9999 // FEW010/// OVC015/// 13/11 Q1015

METARs EXPIRÉS :
  • 300250Z AUTO 23014KT 9999 // FEW013/// BKN016/// OVC019/// 13/11 Q1015
  • 300220Z AUTO 24015KT 9999 // BKN013/// BKN017/// OVC021/// 13/11 Q1015
  • 300150Z AUTO 23014KT 9999 // OVC014/// 13/11 Q1015
  • 300120Z AUTO 24013KT 9999 // BKN012/// OVC016/// 13/11 Q1015
  • 300050Z AUTO 24013KT 220V290 9999 // BKN011/// OVC013/// 13/11 Q1015

TAF TAF EDLW
Valide du 29 à 18h jusqu'au 30 à 18h UTC


291700Z 2918/3018 22010KT 8000 BKN030
TEMPO 2918/2922 RA
BECMG 2919/2922 22015KT BKN012
TEMPO 2922/3018 BKN007
TEMPO 2923/3012 24015G25KT
PROB30
TEMPO 3012/3018 4000 -DZRA



MET'MAP, la Météo Aéronautique d'un coup d'oeil ! - Copyright ORBIFLY Décembre 2007 - Disclaimer

ORBIFLY MET'MAP TEAM :

Programmation & Développement : Alexandra Zaïnal
Sur une idée originale de : Baudouin d'Aumeries
Assistance à la programmation : Marc-Olivier Méhu
Soutien technique & logistique : Manuel Goepfert

Contact : metmap@orbifly.com




SOURCES & CREDITS :

   NOAA